createdAt,value
2018-10-02T00:00:54.407Z,1.17
2018-10-02T00:03:22.653Z,2.15
2018-10-02T00:05:50.981Z,1.62
2018-10-02T00:08:19.157Z,1.40
2018-10-02T00:10:52.804Z,2.50
2018-10-02T00:13:26.478Z,1.37
2018-10-02T00:15:54.730Z,2.22
2018-10-02T00:18:22.934Z,1.50
2018-10-02T00:20:51.185Z,1.20
2018-10-02T00:23:19.401Z,1.85
2018-10-02T00:25:47.615Z,1.82
2018-10-02T00:28:15.879Z,1.40
2018-10-02T00:30:44.126Z,1.80
2018-10-02T00:33:12.328Z,1.67
2018-10-02T00:35:40.527Z,1.90
2018-10-02T00:38:08.723Z,1.40
2018-10-02T00:40:36.966Z,2.08
2018-10-02T00:43:05.142Z,1.30
2018-10-02T00:45:33.404Z,1.90
2018-10-02T00:48:01.639Z,1.62
2018-10-02T00:50:29.863Z,1.82
2018-10-02T00:52:58.063Z,2.40
2018-10-02T00:55:26.303Z,2.20
2018-10-02T00:57:54.551Z,2.45
2018-10-02T01:00:23.021Z,1.77
2018-10-02T01:02:51.172Z,1.57
2018-10-02T01:05:19.335Z,1.75
2018-10-02T01:07:47.690Z,1.75
2018-10-02T01:10:15.887Z,1.92
2018-10-02T01:12:44.059Z,1.52
2018-10-02T01:15:12.298Z,2.00
2018-10-02T01:17:40.535Z,1.90
2018-10-02T01:20:09.240Z,1.85
2018-10-02T01:22:37.458Z,1.35
2018-10-02T01:25:05.818Z,2.90
2018-10-02T01:27:34.032Z,1.95
2018-10-02T01:30:02.380Z,1.42
2018-10-02T01:32:30.572Z,2.55
2018-10-02T01:34:58.741Z,1.80
2018-10-02T01:37:27.053Z,1.92
2018-10-02T01:39:55.263Z,1.98
2018-10-02T01:42:23.540Z,1.92
2018-10-02T01:44:51.806Z,2.47
2018-10-02T01:47:20.155Z,1.90
2018-10-02T01:49:48.435Z,2.35
2018-10-02T01:52:16.647Z,2.90
2018-10-02T01:54:44.846Z,1.42
2018-10-02T01:57:13.078Z,1.70
2018-10-02T01:59:41.305Z,1.50
2018-10-02T02:02:09.588Z,2.10
2018-10-02T02:04:37.747Z,2.47
2018-10-02T02:07:06.279Z,2.58
2018-10-02T02:09:34.531Z,2.60
2018-10-02T02:12:02.692Z,2.90
2018-10-02T02:14:30.906Z,2.30
2018-10-02T02:16:59.136Z,2.40
2018-10-02T02:19:27.366Z,1.60
2018-10-02T02:21:55.563Z,2.25
2018-10-02T02:24:23.786Z,2.37
2018-10-02T02:26:51.994Z,2.40
2018-10-02T02:29:20.251Z,2.52
2018-10-02T02:31:48.467Z,2.55
2018-10-02T02:34:16.719Z,1.95
2018-10-02T02:36:44.924Z,3.60
2018-10-02T02:39:13.127Z,2.00
2018-10-02T02:41:41.268Z,2.50
2018-10-02T02:44:09.530Z,2.62
2018-10-02T02:49:33.375Z,2.47
2018-10-02T02:52:01.607Z,2.62
2018-10-02T02:54:29.874Z,2.55
2018-10-02T02:56:58.053Z,2.33
2018-10-02T02:59:26.285Z,1.98
2018-10-02T03:01:54.481Z,2.45
2018-10-02T03:04:22.696Z,2.50
2018-10-02T03:06:50.985Z,2.87
2018-10-02T03:09:19.218Z,2.00
2018-10-02T03:11:47.500Z,2.50
2018-10-02T03:14:15.765Z,2.20
2018-10-02T03:16:44.034Z,2.83
2018-10-02T03:19:12.425Z,2.02
2018-10-02T03:21:40.657Z,2.92
2018-10-02T03:24:08.838Z,2.67
2018-10-02T03:26:37.038Z,3.00
2018-10-02T03:29:05.331Z,2.20
2018-10-02T03:31:33.556Z,2.90
2018-10-02T03:34:01.749Z,2.67
2018-10-02T03:36:30.004Z,2.65
2018-10-02T03:38:58.223Z,3.08
2018-10-02T03:41:26.441Z,3.10
2018-10-02T03:43:54.636Z,3.08
2018-10-02T03:46:22.853Z,3.30
2018-10-02T03:48:51.085Z,2.15
2018-10-02T03:51:19.285Z,3.27
2018-10-02T03:53:47.444Z,2.20
2018-10-02T03:56:15.661Z,2.60
2018-10-02T03:58:43.913Z,2.25
2018-10-02T04:01:12.201Z,3.70
2018-10-02T04:03:40.589Z,2.10
2018-10-02T04:06:08.700Z,2.80
2018-10-02T04:08:36.966Z,3.42
2018-10-02T04:11:05.215Z,2.33
2018-10-02T04:13:33.466Z,3.00
2018-10-02T04:16:01.702Z,2.90
2018-10-02T04:18:29.977Z,3.05
2018-10-02T04:20:58.243Z,3.12
2018-10-02T04:23:26.516Z,3.00
2018-10-02T04:25:54.757Z,2.60
2018-10-02T04:28:23.011Z,3.70
2018-10-02T04:30:51.290Z,2.80
2018-10-02T04:33:19.489Z,2.80
2018-10-02T04:35:47.692Z,2.87
2018-10-02T04:38:15.927Z,3.25
2018-10-02T04:40:44.165Z,3.05
2018-10-02T04:43:12.399Z,3.20
2018-10-02T04:45:40.617Z,3.05
2018-10-02T04:48:08.795Z,3.10
2018-10-02T04:50:37.033Z,2.30
2018-10-02T04:53:05.347Z,2.67
2018-10-02T04:55:33.589Z,2.62
2018-10-02T04:58:01.818Z,3.27
2018-10-02T05:00:30.255Z,2.60
2018-10-02T05:02:58.559Z,2.87
2018-10-02T05:05:26.762Z,3.00
2018-10-02T05:07:55.081Z,2.70
2018-10-02T05:10:23.347Z,2.40
2018-10-02T05:12:51.608Z,2.40
2018-10-02T05:15:19.830Z,2.27
2018-10-02T05:17:48.058Z,2.70
2018-10-02T05:20:16.379Z,3.37
2018-10-02T05:22:44.712Z,2.80
2018-10-02T05:25:12.985Z,3.12
2018-10-02T05:27:41.252Z,2.42
2018-10-02T05:30:09.493Z,2.72
2018-10-02T05:32:37.818Z,2.70
2018-10-02T05:35:06.128Z,2.12
2018-10-02T05:37:34.357Z,2.92
2018-10-02T05:40:02.710Z,3.22
2018-10-02T05:42:31.150Z,3.55
2018-10-02T05:47:37.474Z,3.17
2018-10-02T05:50:05.697Z,2.37
2018-10-02T05:52:33.979Z,3.45
2018-10-02T05:55:02.429Z,3.20
2018-10-02T05:57:31.209Z,2.92
2018-10-02T05:59:59.500Z,3.52
2018-10-02T06:02:29.798Z,2.80
2018-10-02T06:04:58.370Z,2.58
2018-10-02T06:07:26.885Z,2.62
2018-10-02T06:09:56.632Z,3.10
2018-10-02T06:12:25.054Z,2.40
2018-10-02T06:14:53.434Z,2.87
2018-10-02T06:17:22.213Z,3.02
2018-10-02T06:19:50.670Z,3.00
2018-10-02T06:22:19.254Z,3.17
2018-10-02T06:24:47.772Z,2.55
2018-10-02T06:27:15.928Z,2.50
2018-10-02T06:29:44.130Z,2.95
2018-10-02T06:32:12.438Z,1.87
2018-10-02T06:34:40.678Z,2.40
2018-10-02T06:37:09.385Z,2.50
2018-10-02T06:39:37.638Z,3.02
2018-10-02T06:42:05.898Z,3.05
2018-10-02T06:44:34.122Z,3.05
2018-10-02T06:47:02.395Z,2.72
2018-10-02T06:49:39.989Z,2.50
2018-10-02T06:52:08.463Z,3.47
2018-10-02T06:54:36.513Z,2.95
2018-10-02T06:57:05.047Z,3.47
2018-10-02T06:59:33.352Z,2.83
2018-10-02T07:02:01.617Z,3.20
2018-10-02T07:04:29.833Z,3.65
2018-10-02T07:06:58.038Z,3.10
2018-10-02T07:09:26.305Z,3.08
2018-10-02T07:11:54.533Z,6.05
2018-10-02T07:14:22.878Z,11.25
2018-10-02T07:16:51.190Z,2.40
2018-10-02T07:19:19.493Z,2.83
2018-10-02T07:21:47.725Z,3.12
2018-10-02T07:24:15.959Z,2.90
2018-10-02T07:26:44.218Z,4.22
2018-10-02T07:29:12.464Z,3.00
2018-10-02T07:31:40.723Z,3.22
2018-10-02T07:34:08.915Z,2.67
2018-10-02T07:36:37.146Z,2.75
2018-10-02T07:39:07.160Z,3.08
2018-10-02T07:41:35.377Z,3.70
2018-10-02T07:44:03.649Z,2.30
2018-10-02T07:46:32.137Z,3.10
2018-10-02T07:49:00.541Z,2.72
2018-10-02T07:51:28.823Z,2.85
2018-10-02T07:53:57.072Z,2.50
2018-10-02T07:56:25.397Z,3.30
2018-10-02T07:58:53.609Z,2.42
2018-10-02T08:01:22.003Z,2.90
2018-10-02T08:03:50.277Z,2.62
2018-10-02T08:06:18.490Z,2.70
2018-10-02T08:08:46.770Z,3.08
2018-10-02T08:11:15.045Z,2.85
2018-10-02T08:13:43.246Z,3.20
2018-10-02T08:16:11.461Z,2.72
2018-10-02T08:18:39.761Z,3.00
2018-10-02T08:21:08.071Z,3.50
2018-10-02T08:23:36.379Z,3.33
2018-10-02T08:26:04.647Z,3.55
2018-10-02T08:28:32.900Z,4.40
2018-10-02T08:31:01.304Z,4.37
2018-10-02T08:33:29.550Z,4.05
2018-10-02T08:35:57.788Z,3.80
2018-10-02T08:38:26.035Z,4.30
2018-10-02T08:40:54.255Z,3.72
2018-10-02T08:43:22.561Z,4.30
2018-10-02T08:45:50.727Z,4.53
2018-10-02T08:48:19.122Z,4.60
2018-10-02T08:50:47.431Z,5.70
2018-10-02T08:53:15.825Z,4.65
2018-10-02T08:55:44.121Z,5.12
2018-10-02T08:58:12.342Z,5.35
2018-10-02T09:00:40.846Z,5.95
2018-10-02T09:03:09.432Z,5.67
2018-10-02T09:05:37.691Z,6.25
2018-10-02T09:08:07.062Z,6.47
2018-10-02T09:10:35.327Z,6.22
2018-10-02T09:13:03.639Z,6.50
2018-10-02T09:15:32.004Z,7.75
2018-10-02T09:18:00.220Z,7.42
2018-10-02T09:20:28.542Z,7.92
2018-10-02T09:22:56.855Z,8.05
2018-10-02T09:25:27.031Z,8.18
2018-10-02T09:27:55.764Z,8.23
2018-10-02T09:30:29.351Z,8.85
2018-10-02T09:33:03.406Z,8.83
2018-10-02T09:35:37.066Z,9.60
2018-10-02T09:38:10.717Z,8.58
2018-10-02T09:40:44.301Z,9.63
2018-10-02T09:43:18.183Z,9.25
2018-10-02T09:45:46.574Z,8.43
2018-10-02T09:48:15.193Z,9.85
2018-10-02T09:50:43.610Z,8.55
2018-10-02T09:53:11.729Z,8.70
2018-10-02T09:55:39.933Z,10.35
2018-10-02T09:58:08.119Z,10.10
2018-10-02T10:00:41.715Z,9.78
2018-10-02T10:03:10.173Z,9.18
2018-10-02T10:05:38.421Z,12.10
2018-10-02T10:08:06.822Z,9.30
2018-10-02T10:10:38.494Z,10.88
2018-10-02T10:13:06.734Z,10.13
2018-10-02T10:15:35.132Z,10.35
2018-10-02T10:18:03.471Z,11.38
2018-10-02T10:20:31.885Z,11.88
2018-10-02T10:23:00.389Z,9.60
2018-10-02T10:25:28.656Z,11.08
2018-10-02T10:27:56.968Z,11.57
2018-10-02T10:30:25.299Z,11.33
2018-10-02T10:32:53.659Z,11.05
2018-10-02T10:35:22.124Z,11.75
2018-10-02T10:37:50.360Z,11.53
2018-10-02T10:40:18.665Z,10.10
2018-10-02T10:42:46.968Z,10.70
2018-10-02T10:45:15.308Z,10.63
2018-10-02T10:47:43.708Z,9.88
2018-10-02T10:50:11.969Z,10.28
2018-10-02T10:52:40.504Z,9.55
2018-10-02T10:55:22.871Z,9.43
2018-10-02T10:57:51.512Z,10.85
2018-10-02T11:00:20.060Z,10.60
2018-10-02T11:02:48.493Z,10.28
2018-10-02T11:05:17.012Z,10.78
2018-10-02T11:07:45.286Z,11.75
2018-10-02T11:10:14.348Z,11.93
2018-10-02T11:12:42.557Z,12.05
2018-10-02T11:15:10.853Z,13.78
2018-10-02T11:17:39.039Z,14.20
2018-10-02T11:20:07.824Z,13.25
2018-10-02T11:22:37.096Z,13.93
2018-10-02T11:25:05.762Z,14.25
2018-10-02T11:27:33.966Z,14.73
2018-10-02T11:30:02.832Z,14.00
2018-10-02T11:32:31.065Z,14.40
2018-10-02T11:34:59.801Z,14.85
2018-10-02T11:37:28.062Z,15.60
2018-10-02T11:39:56.331Z,16.00
2018-10-02T11:42:24.546Z,16.20
2018-10-02T11:44:53.335Z,14.60
2018-10-02T11:47:21.454Z,15.13
2018-10-02T11:49:49.743Z,14.03
2018-10-02T11:52:17.930Z,13.60
2018-10-02T11:54:46.160Z,13.40
2018-10-02T11:57:14.355Z,12.50
2018-10-02T11:59:42.525Z,12.68
2018-10-02T12:02:10.912Z,12.20
2018-10-02T12:04:39.657Z,12.47
2018-10-02T12:07:07.923Z,12.82
2018-10-02T12:09:36.145Z,11.75
2018-10-02T12:12:04.350Z,10.28
2018-10-02T12:14:32.731Z,9.85
2018-10-02T12:17:00.813Z,11.20
2018-10-02T12:19:29.144Z,10.43
2018-10-02T12:21:57.517Z,11.00
2018-10-02T12:24:25.808Z,10.23
2018-10-02T12:26:54.098Z,8.43
2018-10-02T12:29:22.299Z,9.50
2018-10-02T12:31:50.522Z,8.85
2018-10-02T12:34:18.879Z,8.83
2018-10-02T12:36:47.465Z,9.40
2018-10-02T12:39:15.750Z,9.70
2018-10-02T12:41:43.933Z,8.83
2018-10-02T12:44:12.161Z,9.80
2018-10-02T12:46:40.338Z,9.30
2018-10-02T12:49:08.818Z,9.40
2018-10-02T12:51:37.017Z,9.85
2018-10-02T12:54:05.224Z,11.05
2018-10-02T12:56:33.475Z,10.25
2018-10-02T12:59:01.677Z,10.60
2018-10-02T13:01:30.196Z,10.95
2018-10-02T13:03:58.402Z,10.85
2018-10-02T13:06:26.643Z,12.15
2018-10-02T13:08:54.929Z,12.80
2018-10-02T13:11:23.146Z,11.60
2018-10-02T13:13:51.480Z,11.73
2018-10-02T13:16:19.699Z,13.03
2018-10-02T13:18:47.920Z,12.10
2018-10-02T13:21:16.141Z,11.65
2018-10-02T13:23:44.405Z,12.85
2018-10-02T13:26:12.858Z,12.00
2018-10-02T13:28:41.055Z,13.13
2018-10-02T13:31:09.280Z,12.47
2018-10-02T13:33:37.510Z,14.45
2018-10-02T13:36:05.750Z,14.07
2018-10-02T13:38:33.954Z,14.90
2018-10-02T13:41:02.199Z,14.35
2018-10-02T13:43:30.436Z,16.05
2018-10-02T13:45:58.672Z,14.93
2018-10-02T13:48:26.883Z,14.70
2018-10-02T13:50:55.061Z,14.13
2018-10-02T13:53:23.298Z,15.30
2018-10-02T13:55:51.441Z,15.25
2018-10-02T13:58:20.256Z,15.28
2018-10-02T14:00:48.597Z,16.57
2018-10-02T14:03:16.809Z,16.42
2018-10-02T14:05:44.985Z,16.37
2018-10-02T14:08:13.780Z,17.12
2018-10-02T14:10:42.913Z,17.37
2018-10-02T14:13:11.137Z,17.45
2018-10-02T14:15:39.409Z,17.85
2018-10-02T14:18:07.597Z,16.50
2018-10-02T14:20:35.828Z,15.45
2018-10-02T14:23:04.124Z,15.55
2018-10-02T14:25:32.337Z,14.68
2018-10-02T14:28:00.655Z,14.28
2018-10-02T14:30:28.850Z,13.03
2018-10-02T14:32:57.004Z,13.95
2018-10-02T14:35:25.403Z,10.70
2018-10-02T14:37:53.606Z,10.15
2018-10-02T14:40:21.906Z,11.60
2018-10-02T14:42:50.416Z,9.18
2018-10-02T14:45:18.638Z,9.45
2018-10-02T14:47:46.836Z,8.05
2018-10-02T14:50:15.029Z,8.90
2018-10-02T14:52:43.219Z,8.38
2018-10-02T14:55:11.420Z,9.25
2018-10-02T14:57:39.751Z,8.03
2018-10-02T15:00:08.130Z,8.13
2018-10-02T15:02:36.394Z,7.17
2018-10-02T15:05:04.760Z,7.22
2018-10-02T15:07:33.161Z,6.80
2018-10-02T15:10:01.630Z,7.30
2018-10-02T15:12:30.121Z,7.20
2018-10-02T15:14:58.783Z,6.20
2018-10-02T15:17:27.209Z,5.33
2018-10-02T15:19:55.530Z,5.33
2018-10-02T15:22:23.866Z,5.00
2018-10-02T15:24:52.201Z,6.05
2018-10-02T15:27:20.489Z,5.85
2018-10-02T15:29:48.766Z,6.53
2018-10-02T15:32:16.978Z,5.47
2018-10-02T15:34:45.522Z,5.55
2018-10-02T15:37:13.802Z,5.37
2018-10-02T15:39:42.081Z,5.65
2018-10-02T15:42:10.431Z,4.80
2018-10-02T15:44:38.819Z,4.78
2018-10-02T15:47:07.076Z,4.62
2018-10-02T15:49:35.324Z,5.25
2018-10-02T15:52:03.594Z,4.42
2018-10-02T15:54:32.003Z,5.60
2018-10-02T15:57:00.309Z,4.03
2018-10-02T15:59:28.583Z,4.78
2018-10-02T16:01:56.859Z,5.08
2018-10-02T16:04:25.136Z,5.40
2018-10-02T16:06:53.414Z,5.55
2018-10-02T16:09:21.775Z,5.42
2018-10-02T16:11:50.211Z,4.97
2018-10-02T16:14:18.402Z,5.70
2018-10-02T16:16:46.665Z,4.62
2018-10-02T16:19:14.918Z,6.17
2018-10-02T16:21:43.161Z,5.95
2018-10-02T16:24:11.417Z,5.47
2018-10-02T16:26:39.751Z,5.75
2018-10-02T16:29:08.145Z,5.37
2018-10-02T16:31:36.408Z,5.10
2018-10-02T16:34:04.749Z,5.05
2018-10-02T16:36:33.031Z,5.75
2018-10-02T16:39:01.431Z,5.53
2018-10-02T16:41:30.154Z,5.60
2018-10-02T16:44:01.492Z,4.55
2018-10-02T16:46:29.804Z,6.40
2018-10-02T16:48:58.077Z,5.72
2018-10-02T16:51:26.382Z,5.40
2018-10-02T16:53:54.650Z,4.72
2018-10-02T16:56:23.481Z,5.50
2018-10-02T16:58:52.029Z,4.95
2018-10-02T17:01:20.262Z,5.75
2018-10-02T17:03:48.484Z,6.97
2018-10-02T17:06:16.735Z,5.05
2018-10-02T17:08:45.016Z,3.62
2018-10-02T17:11:13.332Z,4.35
2018-10-02T17:13:41.540Z,5.22
2018-10-02T17:16:09.868Z,4.45
2018-10-02T17:18:38.174Z,4.92
2018-10-02T17:21:06.716Z,4.42
2018-10-02T17:23:34.989Z,4.67
2018-10-02T17:26:03.264Z,3.92
2018-10-02T17:28:31.723Z,4.10
2018-10-02T17:30:59.987Z,3.42
2018-10-02T17:33:28.229Z,3.72
2018-10-02T17:35:56.488Z,4.28
2018-10-02T17:38:24.706Z,4.37
2018-10-02T17:40:53.331Z,5.00
2018-10-02T17:43:21.902Z,4.67
2018-10-02T17:45:50.465Z,3.52
2018-10-02T17:48:18.802Z,3.30
2018-10-02T17:50:47.017Z,4.80
2018-10-02T17:53:15.176Z,4.22
2018-10-02T17:55:43.399Z,4.45
2018-10-02T17:58:11.609Z,3.98
2018-10-02T18:00:40.043Z,4.58
2018-10-02T18:03:08.271Z,3.40
2018-10-02T18:05:36.768Z,4.05
2018-10-02T18:08:05.128Z,4.42
2018-10-02T18:10:33.467Z,4.50
2018-10-02T18:13:01.726Z,3.58
2018-10-02T18:15:30.011Z,5.28
2018-10-02T18:17:58.320Z,4.00
2018-10-02T18:20:27.078Z,4.00
2018-10-02T18:22:55.241Z,4.87
2018-10-02T18:25:23.550Z,4.10
2018-10-02T18:27:52.026Z,4.17
2018-10-02T18:30:20.327Z,3.85
2018-10-02T18:32:48.545Z,4.53
2018-10-02T18:35:16.822Z,3.62
2018-10-02T18:37:45.104Z,3.85
2018-10-02T18:40:13.395Z,4.33
2018-10-02T18:42:41.733Z,3.17
2018-10-02T18:45:10.088Z,3.52
2018-10-02T18:47:38.357Z,4.95
2018-10-02T18:50:07.196Z,3.80
2018-10-02T18:52:35.585Z,4.05
2018-10-02T18:55:04.022Z,3.75
2018-10-02T18:57:32.388Z,4.45
2018-10-02T19:00:00.824Z,5.30
2018-10-02T19:02:29.104Z,4.58
2018-10-02T19:04:57.887Z,5.20
2018-10-02T19:07:28.609Z,4.58
2018-10-02T19:09:57.546Z,3.85
2018-10-02T19:12:26.487Z,4.17
2018-10-02T19:14:54.766Z,4.03
2018-10-02T19:17:25.079Z,3.33
2018-10-02T19:19:59.220Z,4.85
2018-10-02T19:22:28.300Z,3.98
2018-10-02T19:25:02.078Z,4.67
2018-10-02T19:27:30.615Z,4.53
2018-10-02T19:30:04.222Z,3.58
2018-10-02T19:32:32.447Z,4.35
2018-10-02T19:35:01.225Z,3.20
2018-10-02T19:37:34.907Z,3.20
2018-10-02T19:40:03.156Z,4.05
2018-10-02T19:42:31.390Z,2.90
2018-10-02T19:45:03.973Z,3.85
2018-10-02T19:47:32.366Z,3.08
2018-10-02T19:50:00.599Z,3.15
2018-10-02T19:52:28.827Z,3.33
2018-10-02T19:54:57.007Z,4.45
2018-10-02T19:57:25.270Z,3.50
2018-10-02T19:59:53.538Z,3.42
2018-10-02T20:02:21.684Z,6.33
2018-10-02T20:04:49.860Z,4.40
2018-10-02T20:07:18.198Z,4.78
2018-10-02T20:09:46.246Z,4.87
2018-10-02T20:12:14.409Z,4.08
2018-10-02T20:14:42.619Z,4.70
2018-10-02T20:17:10.890Z,4.62
2018-10-02T20:19:39.102Z,4.37
2018-10-02T20:22:08.823Z,4.05
2018-10-02T20:24:37.194Z,4.05
2018-10-02T20:27:05.437Z,4.78
2018-10-02T20:29:34.329Z,4.10
2018-10-02T20:32:02.519Z,3.85
2018-10-02T20:34:30.742Z,4.15
2018-10-02T20:36:58.961Z,5.40
2018-10-02T20:39:27.234Z,3.95
2018-10-02T20:41:55.413Z,5.08
2018-10-02T20:44:23.625Z,4.80
2018-10-02T20:46:51.891Z,4.92
2018-10-02T20:49:20.203Z,4.67
2018-10-02T20:51:48.358Z,4.40
2018-10-02T20:54:16.537Z,5.40
2018-10-02T20:56:44.719Z,5.85
2018-10-02T20:59:12.978Z,5.45
2018-10-02T21:01:41.671Z,5.53
2018-10-02T21:04:09.852Z,6.20
2018-10-02T21:06:38.074Z,6.03
2018-10-02T21:09:06.869Z,4.30
2018-10-02T21:11:35.048Z,4.30
2018-10-02T21:14:03.318Z,4.97
2018-10-02T21:16:31.496Z,4.08
2018-10-02T21:18:59.652Z,5.08
2018-10-02T21:21:27.874Z,4.08
2018-10-02T21:23:56.082Z,4.15
2018-10-02T21:26:24.230Z,5.85
2018-10-02T21:28:52.458Z,4.70
2018-10-02T21:31:20.589Z,5.08
2018-10-02T21:33:48.926Z,5.03
2018-10-02T21:36:17.132Z,3.77
2018-10-02T21:38:45.322Z,5.12
2018-10-02T21:41:13.518Z,3.90
2018-10-02T21:43:41.726Z,4.35
2018-10-02T21:46:10.016Z,6.53
2018-10-02T21:48:38.285Z,3.83
2018-10-02T21:51:06.471Z,4.25
2018-10-02T21:53:34.720Z,3.52
2018-10-02T21:56:02.964Z,3.98
2018-10-02T21:58:31.168Z,3.67
2018-10-02T22:01:05.317Z,4.75
2018-10-02T22:03:35.434Z,3.30
2018-10-02T22:06:03.638Z,4.17
2018-10-02T22:08:31.919Z,4.12
2018-10-02T22:11:00.154Z,4.08
2018-10-02T22:13:28.370Z,3.52
2018-10-02T22:15:56.958Z,3.30
2018-10-02T22:18:25.211Z,4.25
2018-10-02T22:20:53.363Z,4.85
2018-10-02T22:23:21.606Z,4.25
2018-10-02T22:25:49.800Z,4.47
2018-10-02T22:28:18.916Z,3.55
2018-10-02T22:30:47.225Z,4.35
2018-10-02T22:33:15.476Z,3.65
2018-10-02T22:35:43.620Z,4.25
2018-10-02T22:38:11.826Z,3.25
2018-10-02T22:40:40.010Z,5.47
2018-10-02T22:43:08.190Z,3.40
2018-10-02T22:45:36.322Z,4.05
2018-10-02T22:48:04.587Z,4.00
2018-10-02T22:50:32.779Z,4.08
2018-10-02T22:53:00.985Z,4.87
2018-10-02T22:55:29.160Z,3.95
2018-10-02T22:57:57.351Z,3.60
2018-10-02T23:00:25.566Z,4.08
2018-10-02T23:02:53.750Z,4.12
2018-10-02T23:05:21.972Z,4.00
2018-10-02T23:07:50.196Z,3.17
2018-10-02T23:10:18.370Z,3.62
2018-10-02T23:12:46.629Z,4.65
2018-10-02T23:15:14.857Z,4.20
2018-10-02T23:17:43.026Z,4.62
2018-10-02T23:20:11.174Z,4.28
2018-10-02T23:22:39.344Z,4.50
2018-10-02T23:25:07.556Z,4.55
2018-10-02T23:27:35.748Z,4.10
2018-10-02T23:30:03.944Z,4.08
2018-10-02T23:32:32.153Z,3.50
2018-10-02T23:35:00.377Z,2.83
2018-10-02T23:37:28.594Z,5.22
2018-10-02T23:39:56.825Z,3.40
2018-10-02T23:42:25.029Z,4.20
2018-10-02T23:44:53.298Z,4.33
2018-10-02T23:47:21.707Z,5.12
2018-10-02T23:49:50.009Z,5.12
2018-10-02T23:52:18.334Z,3.47
2018-10-02T23:54:46.602Z,4.35
2018-10-02T23:57:14.792Z,4.15
2018-10-02T23:59:43.065Z,4.08
